createdAt,value
2023-09-16T00:02:19.030Z,99982.56
2023-09-16T00:04:46.886Z,99985.41
2023-09-16T00:07:14.748Z,99991.31
2023-09-16T00:09:43.424Z,99991.44
2023-09-16T00:12:11.203Z,99995.13
2023-09-16T00:14:39.384Z,99986.75
2023-09-16T00:17:10.330Z,99992.25
2023-09-16T00:19:38.117Z,99992.50
2023-09-16T00:22:11.302Z,99991.44
2023-09-16T00:24:38.986Z,99992.50
2023-09-16T00:27:08.528Z,99985.13
2023-09-16T00:29:36.597Z,99987.09
2023-09-16T00:32:05.177Z,99988.66
2023-09-16T00:34:34.610Z,99986.19
2023-09-16T00:37:02.425Z,99987.81
2023-09-16T00:39:30.256Z,99979.31
2023-09-16T00:41:58.216Z,99983.69
2023-09-16T00:44:26.126Z,99976.00
2023-09-16T00:46:53.729Z,99973.53
2023-09-16T00:49:21.387Z,99981.09
2023-09-16T00:51:50.624Z,99979.69
2023-09-16T00:54:18.422Z,99976.25
2023-09-16T00:56:46.823Z,99963.44
2023-09-16T00:59:14.815Z,99964.13
2023-09-16T01:01:46.164Z,99961.56
2023-09-16T01:04:14.114Z,99959.13
2023-09-16T01:06:44.259Z,99971.28
2023-09-16T01:09:13.517Z,99968.06
2023-09-16T01:11:41.197Z,99968.88
2023-09-16T01:14:12.414Z,99972.59
2023-09-16T01:16:45.605Z,99973.22
2023-09-16T01:19:21.190Z,99975.47
2023-09-16T01:21:50.278Z,99982.78
2023-09-16T01:24:20.980Z,99972.44
2023-09-16T01:26:50.013Z,99972.91
2023-09-16T01:29:19.704Z,99967.50
2023-09-16T01:31:48.385Z,99966.66
2023-09-16T01:34:24.443Z,99963.84
2023-09-16T01:36:54.453Z,99964.59
2023-09-16T01:39:24.484Z,99958.47
2023-09-16T01:41:55.514Z,99957.78
2023-09-16T01:44:23.279Z,99966.25
2023-09-16T01:46:50.915Z,99959.59
2023-09-16T01:49:18.634Z,99968.38
2023-09-16T01:51:46.343Z,99969.38
2023-09-16T01:54:14.104Z,99965.09
2023-09-16T01:56:42.049Z,99973.47
2023-09-16T01:59:10.992Z,99976.28
2023-09-16T02:01:38.712Z,99972.06
2023-09-16T02:04:07.428Z,99965.44
2023-09-16T02:06:35.118Z,99964.28
2023-09-16T02:09:02.740Z,99976.88
2023-09-16T02:11:31.948Z,99966.16
2023-09-16T02:14:00.538Z,99965.91
2023-09-16T02:16:29.652Z,99972.50
2023-09-16T02:18:57.342Z,99971.81
2023-09-16T02:21:25.109Z,99967.56
2023-09-16T02:23:52.982Z,99972.53
2023-09-16T02:26:20.778Z,99980.16
2023-09-16T02:28:48.743Z,99977.34
2023-09-16T02:31:17.144Z,99989.47
2023-09-16T02:33:46.255Z,99972.28
2023-09-16T02:36:14.063Z,99979.09
2023-09-16T02:38:41.792Z,99978.28
2023-09-16T02:41:09.460Z,99976.88
2023-09-16T02:43:37.217Z,99968.41
2023-09-16T02:46:04.959Z,99971.81
2023-09-16T02:48:32.651Z,99970.31
2023-09-16T02:51:01.641Z,99973.34
2023-09-16T02:53:29.366Z,99978.91
2023-09-16T02:55:57.459Z,99975.81
2023-09-16T02:58:25.210Z,99979.09
2023-09-16T03:00:53.142Z,99972.53
2023-09-16T03:03:20.982Z,99973.00
2023-09-16T03:05:48.701Z,99977.09
2023-09-16T03:08:17.694Z,99975.47
2023-09-16T03:10:46.228Z,99974.75
2023-09-16T03:13:13.869Z,99973.81
2023-09-16T03:15:46.475Z,99975.22
2023-09-16T03:18:14.546Z,99973.09
2023-09-16T03:20:42.270Z,99968.81
2023-09-16T03:23:10.134Z,99962.81
2023-09-16T03:25:39.210Z,99966.94
2023-09-16T03:28:06.860Z,99963.88
2023-09-16T03:30:34.775Z,99966.81
2023-09-16T03:33:03.451Z,99955.88
2023-09-16T03:35:32.360Z,99961.69
2023-09-16T03:38:00.382Z,99961.41
2023-09-16T03:40:28.151Z,99955.63
2023-09-16T03:42:58.131Z,99950.13
2023-09-16T03:45:29.562Z,99947.34
2023-09-16T03:47:57.991Z,99956.69
2023-09-16T03:50:25.815Z,99959.28
2023-09-16T03:52:53.509Z,99962.34
2023-09-16T03:55:21.216Z,99960.28
2023-09-16T03:57:48.833Z,99959.88
2023-09-16T04:00:18.116Z,99959.78
2023-09-16T04:02:45.838Z,99956.31
2023-09-16T04:05:14.755Z,99958.56
2023-09-16T04:07:42.453Z,99951.06
2023-09-16T04:10:10.856Z,99953.91
2023-09-16T04:12:38.558Z,99947.75
2023-09-16T04:15:07.718Z,99957.16
2023-09-16T04:17:36.868Z,99949.44
2023-09-16T04:20:06.976Z,99955.97
2023-09-16T04:22:34.864Z,99957.63
2023-09-16T04:25:02.936Z,99952.06
2023-09-16T04:27:30.840Z,99953.00
2023-09-16T04:29:58.481Z,99952.06
2023-09-16T04:32:26.335Z,99956.63
2023-09-16T04:34:58.613Z,99952.81
2023-09-16T04:37:26.471Z,99954.56
2023-09-16T04:39:54.385Z,99957.09
2023-09-16T04:42:22.075Z,99960.88
2023-09-16T04:44:49.822Z,99958.28
2023-09-16T04:47:20.537Z,99950.06
2023-09-16T04:49:49.383Z,99953.94
2023-09-16T04:52:18.458Z,99952.44
2023-09-16T04:54:46.671Z,99951.97
2023-09-16T04:57:14.943Z,99953.78
2023-09-16T04:59:44.221Z,99951.06
2023-09-16T05:02:11.887Z,99946.84
2023-09-16T05:04:39.539Z,99951.34
2023-09-16T05:07:07.444Z,99946.53
2023-09-16T05:09:36.832Z,99935.03
2023-09-16T05:12:04.773Z,99942.19
2023-09-16T05:14:32.388Z,99946.53
2023-09-16T05:17:00.189Z,99939.78
2023-09-16T05:19:27.968Z,99937.06
2023-09-16T05:21:55.633Z,99942.72
2023-09-16T05:24:23.301Z,99926.13
2023-09-16T05:26:52.359Z,99938.25
2023-09-16T05:29:20.139Z,99929.00
2023-09-16T05:31:47.886Z,99934.50
2023-09-16T05:34:15.558Z,99931.34
2023-09-16T05:36:43.319Z,99932.41
2023-09-16T05:39:10.991Z,99927.59
2023-09-16T05:41:38.929Z,99927.25
2023-09-16T05:44:08.174Z,99922.88
2023-09-16T05:46:35.900Z,99929.34
2023-09-16T05:49:08.928Z,99931.53
2023-09-16T05:51:36.923Z,99929.31
2023-09-16T05:54:04.901Z,99935.97
2023-09-16T05:56:33.842Z,99932.53
2023-09-16T05:59:01.784Z,99936.03
2023-09-16T06:01:30.846Z,99926.19
2023-09-16T06:03:58.611Z,99927.34
2023-09-16T06:06:26.741Z,99926.13
2023-09-16T06:08:54.362Z,99928.94
2023-09-16T06:11:27.199Z,99927.50
2023-09-16T06:13:54.888Z,99926.22
2023-09-16T06:16:22.645Z,99915.19
2023-09-16T06:18:52.046Z,99921.41
2023-09-16T06:21:19.939Z,99930.50
2023-09-16T06:23:47.918Z,99923.31
2023-09-16T06:26:15.638Z,99926.75
2023-09-16T06:28:43.619Z,99926.91
2023-09-16T06:31:11.259Z,99924.28
2023-09-16T06:33:39.135Z,99920.00
2023-09-16T06:36:08.493Z,99931.78
2023-09-16T06:38:36.183Z,99925.25
2023-09-16T06:41:04.456Z,99933.56
2023-09-16T06:43:32.088Z,99924.56
2023-09-16T06:46:00.301Z,99919.88
2023-09-16T06:48:28.010Z,99915.97
2023-09-16T06:50:56.431Z,99921.34
2023-09-16T06:53:25.472Z,99913.72
2023-09-16T06:55:55.614Z,99920.13
2023-09-16T06:58:24.602Z,99918.69
2023-09-16T07:00:52.407Z,99930.22
2023-09-16T07:03:20.349Z,99926.34
2023-09-16T07:05:48.588Z,99935.19
2023-09-16T07:08:16.532Z,99937.41
2023-09-16T07:10:45.586Z,99932.63
2023-09-16T07:13:13.579Z,99932.38
2023-09-16T07:15:41.345Z,99928.75
2023-09-16T07:18:09.169Z,99928.41
2023-09-16T07:20:37.181Z,99925.31
2023-09-16T07:23:05.434Z,99927.97
2023-09-16T07:25:33.160Z,99934.16
2023-09-16T07:28:04.137Z,99933.94
2023-09-16T07:30:31.819Z,99940.94
2023-09-16T07:32:59.563Z,99944.81
2023-09-16T07:35:27.292Z,99939.13
2023-09-16T07:37:54.945Z,99946.97
2023-09-16T07:40:22.702Z,99941.50
2023-09-16T07:42:50.395Z,99949.72
2023-09-16T07:45:19.717Z,99949.22
2023-09-16T07:47:47.511Z,99950.41
2023-09-16T07:50:15.198Z,99952.13
2023-09-16T07:52:43.340Z,99952.75
2023-09-16T07:55:11.302Z,99962.81
2023-09-16T07:57:38.969Z,99964.44
2023-09-16T08:00:08.585Z,99965.88
2023-09-16T08:02:37.723Z,99958.81
2023-09-16T08:05:06.351Z,99964.91
2023-09-16T08:07:35.963Z,99962.72
2023-09-16T08:10:03.712Z,99966.19
2023-09-16T08:12:31.482Z,99969.22
2023-09-16T08:15:00.131Z,99972.88
2023-09-16T08:17:27.820Z,99977.97
2023-09-16T08:19:56.814Z,99971.75
2023-09-16T08:22:24.556Z,99970.00
2023-09-16T08:24:52.391Z,99977.63
2023-09-16T08:27:21.224Z,99974.53
2023-09-16T08:29:50.627Z,99982.38
2023-09-16T08:32:18.469Z,99989.22
2023-09-16T08:34:46.130Z,99986.28
2023-09-16T08:37:15.210Z,99985.22
2023-09-16T08:39:43.227Z,99986.63
2023-09-16T08:42:17.074Z,99992.59
2023-09-16T08:44:46.502Z,99999.03
2023-09-16T08:47:17.570Z,99991.53
2023-09-16T08:49:51.760Z,100000.44
2023-09-16T08:52:22.057Z,100008.97
2023-09-16T08:54:51.341Z,99995.25
2023-09-16T08:57:20.611Z,99998.50
2023-09-16T08:59:49.360Z,99990.63
2023-09-16T09:02:17.564Z,99994.97
2023-09-16T09:04:45.404Z,100004.91
2023-09-16T09:07:14.632Z,100007.31
2023-09-16T09:09:43.753Z,100004.91
2023-09-16T09:12:12.084Z,100000.63
2023-09-16T09:14:39.990Z,100001.88
2023-09-16T09:17:09.888Z,100001.44
2023-09-16T09:19:39.185Z,100002.25
2023-09-16T09:22:07.296Z,100006.16
2023-09-16T09:24:35.087Z,100007.19
2023-09-16T09:27:04.133Z,100004.44
2023-09-16T09:29:31.871Z,100008.69
2023-09-16T09:31:59.902Z,100011.53
2023-09-16T09:34:30.291Z,100006.47
2023-09-16T09:36:57.961Z,100005.81
2023-09-16T09:39:25.747Z,100011.56
2023-09-16T09:41:54.045Z,100008.69
2023-09-16T09:44:24.217Z,100004.97
2023-09-16T09:46:51.942Z,100006.06
2023-09-16T09:49:20.540Z,100005.69
2023-09-16T09:51:49.552Z,100014.22
2023-09-16T09:54:18.207Z,100010.31
2023-09-16T09:56:46.469Z,100010.94
2023-09-16T09:59:14.461Z,100011.84
2023-09-16T10:01:43.971Z,100012.38
2023-09-16T10:04:11.928Z,100007.91
2023-09-16T10:06:40.009Z,100003.56
2023-09-16T10:09:08.194Z,99997.06
2023-09-16T10:11:37.398Z,99998.31
2023-09-16T10:14:05.400Z,100006.00
2023-09-16T10:16:33.210Z,100004.81
2023-09-16T10:19:02.342Z,99995.63
2023-09-16T10:21:30.058Z,99995.38
2023-09-16T10:23:58.289Z,99988.16
2023-09-16T10:26:25.952Z,99981.56
2023-09-16T10:28:56.359Z,99990.47
2023-09-16T10:31:25.243Z,99995.34
2023-09-16T10:33:54.927Z,99983.81
2023-09-16T10:36:24.265Z,99974.22
2023-09-16T10:38:52.636Z,99975.31
2023-09-16T10:41:22.500Z,99966.69
2023-09-16T10:43:50.802Z,99968.88
2023-09-16T10:46:19.098Z,99967.81
2023-09-16T10:48:47.177Z,99969.34
2023-09-16T10:51:20.162Z,99967.06
2023-09-16T10:53:53.676Z,99962.34
2023-09-16T10:56:31.999Z,99958.41
2023-09-16T10:59:03.723Z,99958.84
2023-09-16T11:01:37.423Z,99962.88
2023-09-16T11:04:10.285Z,99963.31
2023-09-16T11:06:38.156Z,99954.25
2023-09-16T11:09:07.596Z,99957.56
2023-09-16T11:11:36.400Z,99947.66
2023-09-16T11:14:06.479Z,99957.81
2023-09-16T11:16:44.894Z,99955.06
2023-09-16T11:19:15.932Z,99955.31
2023-09-16T11:21:44.180Z,99958.56
2023-09-16T11:24:14.514Z,99957.09
2023-09-16T11:26:42.460Z,99955.44
2023-09-16T11:29:20.552Z,99955.00
2023-09-16T11:31:48.605Z,99942.00
2023-09-16T11:34:19.477Z,99945.22
2023-09-16T11:36:52.983Z,99951.00
2023-09-16T11:39:26.001Z,99945.34
2023-09-16T11:41:54.240Z,99944.03
2023-09-16T11:44:22.147Z,99938.13
2023-09-16T11:46:50.504Z,99934.94
2023-09-16T11:49:18.503Z,99924.19
2023-09-16T11:51:52.102Z,99925.53
2023-09-16T11:54:20.052Z,99922.81
2023-09-16T11:56:49.038Z,99920.19
2023-09-16T11:59:16.926Z,99917.00
2023-09-16T12:01:44.897Z,99915.06
2023-09-16T12:04:16.393Z,99913.69
2023-09-16T12:06:45.408Z,99908.91
2023-09-16T12:09:17.214Z,99903.41
2023-09-16T12:11:50.717Z,99906.78
2023-09-16T12:14:20.019Z,99915.28
2023-09-16T12:16:48.182Z,99903.16
2023-09-16T12:19:17.230Z,99897.34
2023-09-16T12:21:49.151Z,99899.44
2023-09-16T12:24:21.231Z,99902.56
2023-09-16T12:26:49.888Z,99900.25
2023-09-16T12:29:17.574Z,99896.69
2023-09-16T12:31:46.817Z,99901.97
2023-09-16T12:34:19.137Z,99894.34
2023-09-16T12:36:52.208Z,99887.50
2023-09-16T12:39:22.984Z,99893.44
2023-09-16T12:42:04.455Z,99879.78
2023-09-16T12:44:33.645Z,99877.06
2023-09-16T12:47:04.599Z,99874.50
2023-09-16T12:49:33.032Z,99868.69
2023-09-16T12:52:00.925Z,99873.34
2023-09-16T12:54:31.697Z,99868.19
2023-09-16T12:56:59.440Z,99866.88
2023-09-16T12:59:27.345Z,99867.53
2023-09-16T13:01:55.701Z,99854.75
2023-09-16T13:04:25.276Z,99856.06
2023-09-16T13:06:54.425Z,99860.94
2023-09-16T13:09:22.559Z,99861.16
2023-09-16T13:11:52.038Z,99854.50
2023-09-16T13:14:20.518Z,99861.81
2023-09-16T13:16:48.550Z,99857.13
2023-09-16T13:19:22.085Z,99853.06
2023-09-16T13:21:51.918Z,99852.63
2023-09-16T13:24:19.718Z,99847.81
2023-09-16T13:26:50.954Z,99844.41
2023-09-16T13:29:18.699Z,99845.94
2023-09-16T13:31:47.083Z,99844.75
2023-09-16T13:34:14.805Z,99839.66
2023-09-16T13:36:43.315Z,99839.38
2023-09-16T13:39:12.546Z,99839.38
2023-09-16T13:41:41.639Z,99842.19
2023-09-16T13:44:09.992Z,99833.81
2023-09-16T13:46:37.717Z,99838.41
2023-09-16T13:49:05.693Z,99836.16
2023-09-16T13:51:33.473Z,99836.41
2023-09-16T13:54:01.322Z,99836.16
2023-09-16T13:56:31.192Z,99842.81
2023-09-16T13:58:58.945Z,99838.53
2023-09-16T14:01:27.590Z,99838.88
2023-09-16T14:03:55.546Z,99837.56
2023-09-16T14:06:23.893Z,99835.97
2023-09-16T14:08:51.917Z,99830.69
2023-09-16T14:11:20.862Z,99839.16
2023-09-16T14:13:50.184Z,99845.69
2023-09-16T14:16:17.825Z,99837.44
2023-09-16T14:18:45.892Z,99836.78
2023-09-16T14:21:13.626Z,99836.72
2023-09-16T14:23:41.352Z,99839.69
2023-09-16T14:26:09.132Z,99832.72
2023-09-16T14:28:36.692Z,99828.69
2023-09-16T14:31:08.826Z,99829.25
2023-09-16T14:33:36.942Z,99832.84
2023-09-16T14:36:05.472Z,99827.53
2023-09-16T14:38:33.240Z,99830.94
2023-09-16T14:41:05.519Z,99823.34
2023-09-16T14:43:33.219Z,99821.66
2023-09-16T14:46:00.931Z,99820.03
2023-09-16T14:48:30.224Z,99829.66
2023-09-16T14:50:57.949Z,99831.69
2023-09-16T14:53:25.722Z,99828.28
2023-09-16T14:55:53.450Z,99834.75
2023-09-16T14:58:21.394Z,99832.03
2023-09-16T15:00:49.330Z,99831.28
2023-09-16T15:03:17.139Z,99825.72
2023-09-16T15:05:46.270Z,99830.00
2023-09-16T15:08:14.055Z,99832.94
2023-09-16T15:10:43.201Z,99831.00
2023-09-16T15:13:11.932Z,99829.19
2023-09-16T15:15:39.727Z,99828.72
2023-09-16T15:18:07.660Z,99830.66
2023-09-16T15:20:35.285Z,99831.28
2023-09-16T15:23:04.565Z,99834.13
2023-09-16T15:25:32.282Z,99826.94
2023-09-16T15:28:00.011Z,99827.09
2023-09-16T15:30:28.404Z,99828.63
2023-09-16T15:32:56.252Z,99840.16
2023-09-16T15:35:24.506Z,99834.72
2023-09-16T15:37:52.374Z,99829.34
2023-09-16T15:40:21.481Z,99832.00
2023-09-16T15:42:50.416Z,99832.34
2023-09-16T15:45:18.896Z,99838.69
2023-09-16T15:47:46.618Z,99834.00
2023-09-16T15:50:15.520Z,99825.34
2023-09-16T15:52:43.233Z,99828.09
2023-09-16T15:55:11.050Z,99831.75
2023-09-16T15:57:40.564Z,99835.97
2023-09-16T16:00:09.360Z,99838.53
2023-09-16T16:02:37.944Z,99841.38
2023-09-16T16:05:06.949Z,99846.06
2023-09-16T16:07:34.760Z,99840.75
2023-09-16T16:10:04.090Z,99837.00
2023-09-16T16:12:31.748Z,99837.00
2023-09-16T16:15:00.789Z,99837.09
2023-09-16T16:17:29.718Z,99832.78
2023-09-16T16:19:57.481Z,99840.03
2023-09-16T16:22:25.192Z,99833.94
2023-09-16T16:24:52.986Z,99843.19
2023-09-16T16:27:20.914Z,99840.63
2023-09-16T16:29:48.985Z,99842.75
2023-09-16T16:32:19.207Z,99852.47
2023-09-16T16:34:47.553Z,99846.81
2023-09-16T16:37:15.584Z,99847.50
2023-09-16T16:39:43.185Z,99845.06
2023-09-16T16:42:10.817Z,99845.06
2023-09-16T16:44:40.695Z,99848.72
2023-09-16T16:47:08.454Z,99844.03
2023-09-16T16:49:37.539Z,99842.25
2023-09-16T16:52:05.519Z,99853.81
2023-09-16T16:54:34.127Z,99849.13
2023-09-16T16:57:03.187Z,99848.03
2023-09-16T16:59:30.897Z,99848.78
2023-09-16T17:01:59.122Z,99850.00
2023-09-16T17:04:26.935Z,99855.56
2023-09-16T17:06:55.959Z,99855.50
2023-09-16T17:09:24.259Z,99860.38
2023-09-16T17:11:51.896Z,99860.47
2023-09-16T17:14:19.585Z,99870.25
2023-09-16T17:16:47.726Z,99863.06
2023-09-16T17:19:15.465Z,99868.75
2023-09-16T17:21:43.225Z,99862.56
2023-09-16T17:24:12.338Z,99863.56
2023-09-16T17:26:40.030Z,99861.47
2023-09-16T17:29:07.891Z,99865.06
2023-09-16T17:31:35.891Z,99868.19
2023-09-16T17:34:03.929Z,99864.66
2023-09-16T17:36:31.982Z,99867.41
2023-09-16T17:38:59.843Z,99869.94
2023-09-16T17:41:29.175Z,99864.97
2023-09-16T17:43:56.836Z,99871.66
2023-09-16T17:46:24.692Z,99873.31
2023-09-16T17:48:53.039Z,99875.84
2023-09-16T17:51:20.870Z,99871.09
2023-09-16T17:53:50.214Z,99867.53
2023-09-16T17:56:18.493Z,99874.53
2023-09-16T17:58:47.554Z,99867.47
2023-09-16T18:01:15.409Z,99870.84
2023-09-16T18:03:43.530Z,99874.44
2023-09-16T18:06:11.206Z,99874.13
2023-09-16T18:08:39.703Z,99878.28
2023-09-16T18:11:07.602Z,99871.22
2023-09-16T18:13:35.304Z,99868.13
2023-09-16T18:16:05.776Z,99872.03
2023-09-16T18:18:33.524Z,99866.50
2023-09-16T18:21:01.573Z,99865.38
2023-09-16T18:23:32.607Z,99870.88
2023-09-16T18:26:01.131Z,99867.94
2023-09-16T18:28:29.624Z,99875.19
2023-09-16T18:30:57.437Z,99884.00
2023-09-16T18:33:28.514Z,99883.19
2023-09-16T18:35:56.292Z,99876.63
2023-09-16T18:38:24.791Z,99885.13
2023-09-16T18:40:52.593Z,99886.50
2023-09-16T18:43:20.720Z,99891.72
2023-09-16T18:45:48.858Z,99895.28
2023-09-16T18:48:17.265Z,99901.94
2023-09-16T18:50:46.290Z,99897.59
2023-09-16T18:53:14.010Z,99904.16
2023-09-16T18:55:45.199Z,99903.06
2023-09-16T18:58:14.568Z,99897.59
2023-09-16T19:00:43.961Z,99904.69
2023-09-16T19:03:11.994Z,99901.66
2023-09-16T19:05:40.958Z,99901.66
2023-09-16T19:08:11.331Z,99903.06
2023-09-16T19:10:40.783Z,99898.16
2023-09-16T19:13:09.067Z,99899.25
2023-09-16T19:15:37.555Z,99907.78
2023-09-16T19:18:06.044Z,99911.59
2023-09-16T19:20:33.718Z,99913.75
2023-09-16T19:23:02.193Z,99921.50
2023-09-16T19:25:31.261Z,99920.69
2023-09-16T19:28:00.135Z,99918.22
2023-09-16T19:30:28.227Z,99916.56
2023-09-16T19:32:57.781Z,99919.59
2023-09-16T19:35:26.075Z,99923.97
2023-09-16T19:37:54.184Z,99925.94
2023-09-16T19:40:23.122Z,99924.84
2023-09-16T19:42:52.445Z,99926.78
2023-09-16T19:45:20.034Z,99921.56
2023-09-16T19:47:47.886Z,99920.47
2023-09-16T19:50:15.800Z,99922.69
2023-09-16T19:52:43.437Z,99918.09
2023-09-16T19:55:11.163Z,99916.97
2023-09-16T19:57:38.934Z,99914.78
2023-09-16T20:00:10.605Z,99911.81
2023-09-16T20:02:38.685Z,99911.53
2023-09-16T20:05:08.567Z,99911.00
2023-09-16T20:07:36.362Z,99914.81
2023-09-16T20:10:04.367Z,99916.22
2023-09-16T20:12:32.224Z,99915.13
2023-09-16T20:14:59.952Z,99913.22
2023-09-16T20:17:29.146Z,99910.75
2023-09-16T20:19:56.887Z,99921.47
2023-09-16T20:22:24.631Z,99923.38
2023-09-16T20:24:52.276Z,99928.09
2023-09-16T20:27:20.356Z,99927.84
2023-09-16T20:29:48.425Z,99941.22
2023-09-16T20:32:16.385Z,99948.91
2023-09-16T20:34:46.896Z,99934.69
2023-09-16T20:37:14.787Z,99945.34
2023-09-16T20:39:42.584Z,99937.44
2023-09-16T20:42:11.422Z,99925.94
2023-09-16T20:44:39.347Z,99924.00
2023-09-16T20:47:09.248Z,99923.44
2023-09-16T20:49:37.616Z,99929.78
2023-09-16T20:52:07.196Z,99920.50
2023-09-16T20:54:35.004Z,99919.41
2023-09-16T20:57:04.197Z,99920.22
2023-09-16T20:59:34.245Z,99920.22
2023-09-16T21:02:04.171Z,99930.69
2023-09-16T21:04:32.976Z,99931.53
2023-09-16T21:07:00.775Z,99940.03
2023-09-16T21:09:29.817Z,99929.94
2023-09-16T21:11:57.670Z,99938.13
2023-09-16T21:14:26.897Z,99929.66
2023-09-16T21:16:55.750Z,99934.31
2023-09-16T21:19:23.643Z,99930.47
2023-09-16T21:21:51.616Z,99921.47
2023-09-16T21:24:19.468Z,99909.44
2023-09-16T21:26:50.561Z,99908.66
2023-09-16T21:29:19.701Z,99906.19
2023-09-16T21:31:59.357Z,99900.47
2023-09-16T21:34:29.691Z,99899.34
2023-09-16T21:36:58.193Z,99897.16
2023-09-16T21:39:25.914Z,99893.34
2023-09-16T21:41:55.192Z,99893.34
2023-09-16T21:44:24.228Z,99885.19
2023-09-16T21:46:52.031Z,99875.34
2023-09-16T21:49:19.931Z,99884.59
2023-09-16T21:51:47.595Z,99881.34
2023-09-16T21:54:15.165Z,99881.34
2023-09-16T21:56:43.159Z,99877.53
2023-09-16T21:59:12.247Z,99875.06
2023-09-16T22:01:40.033Z,99870.72
2023-09-16T22:04:07.783Z,99864.13
2023-09-16T22:06:35.431Z,99864.38
2023-09-16T22:09:03.078Z,99859.22
2023-09-16T22:11:30.734Z,99858.41
2023-09-16T22:13:58.477Z,99861.41
2023-09-16T22:16:28.118Z,99851.84
2023-09-16T22:18:55.857Z,99843.13
2023-09-16T22:21:23.523Z,99845.31
2023-09-16T22:23:51.417Z,99848.59
2023-09-16T22:26:19.358Z,99839.03
2023-09-16T22:28:47.066Z,99845.06
2023-09-16T22:31:15.898Z,99842.31
2023-09-16T22:33:45.278Z,99850.78
2023-09-16T22:36:13.031Z,99846.38
2023-09-16T22:38:40.752Z,99849.06
2023-09-16T22:41:08.740Z,99847.16
2023-09-16T22:43:36.378Z,99847.44
2023-09-16T22:46:04.182Z,99847.44
2023-09-16T22:48:31.978Z,99851.78
2023-09-16T22:51:00.931Z,99846.31
2023-09-16T22:53:28.579Z,99840.88
2023-09-16T22:55:59.377Z,99835.69
2023-09-16T22:58:27.126Z,99831.03
2023-09-16T23:00:54.849Z,99833.75
2023-09-16T23:03:22.858Z,99835.06
2023-09-16T23:05:50.711Z,99835.88
2023-09-16T23:08:19.654Z,99838.56
2023-09-16T23:10:47.294Z,99842.94
2023-09-16T23:13:15.040Z,99840.16
2023-09-16T23:15:42.725Z,99843.16
2023-09-16T23:18:10.652Z,99847.44
2023-09-16T23:20:39.931Z,99850.97
2023-09-16T23:23:09.144Z,99844.97
2023-09-16T23:25:38.162Z,99846.28
2023-09-16T23:28:06.579Z,99851.47
2023-09-16T23:30:34.411Z,99851.22
2023-09-16T23:33:02.137Z,99848.78
2023-09-16T23:35:29.845Z,99842.88
2023-09-16T23:37:57.732Z,99839.63
2023-09-16T23:40:26.454Z,99842.38
2023-09-16T23:42:55.436Z,99844.56
2023-09-16T23:45:23.184Z,99847.81
2023-09-16T23:47:50.827Z,99852.19
2023-09-16T23:50:18.667Z,99848.06
2023-09-16T23:52:46.405Z,99849.41
2023-09-16T23:55:14.526Z,99844.78
2023-09-16T23:57:42.290Z,99842.28
